Aérodrome :
LOGIN :

S'inscrire | Disclaimer

   EN    FR    IT 

 










Légende :    VFR   VFR Marginal   IFR   IFR Intensif   IFR Très Intensif
Visi : 
Plafond : 
>= 8 km
>= 3000ft
5 à 8 km
1000 à 3000 ft
1500m à 5 km
500 à 1000 ft
800 à 1500m
200 à 500 ft
< 800m
< 200 ft
Symboles :   Orages  Brouillard  Fortes neiges  Fortes précipitations  Vent > 20 kt
SIGMETs :   Divers  Orages  Givrage  Turbulence  Onde Orograph.  Cendres Volcan.






- Altitude de l'aérodrome : 333 ft


LIPL - Ghedi Brescia (Mil)

DERNIER METAR :
  • 221355Z 28005KT 3500 BR NSC 03/00 Q1023 RMK BKN BKN200 VIS MIN 3500 WIND THR31 28006KT WIND THR13 28006KT YLO

METARs EXPIRÉS :
  • 221255Z 27007KT 2500 BR NSC 02/00 Q1024 RMK BKN BKN200 VIS MIN 2500 WIND THR31 26011KT WIND THR13 27008KT YLO
  • 221155Z 27007KT 2000 BR FEW005 02/00 Q1024 RMK BKN BKN200 VIS MIN 2000 WIND THR31 27010KT WIND THR13 27007KT YLO

TAF TAF LIPL
Valide du 22 à 15h jusqu'au 23 à 00h UTC


221400Z 2215/2224 28008KT 5000 BR FEW010
TEMPO 2215/2224 2000 BR BKN005
BECMG 2220/2222 09007KT



MET'MAP, la Météo Aéronautique d'un coup d'oeil ! - Copyright ORBIFLY Décembre 2007 - Disclaimer

ORBIFLY MET'MAP TEAM :

Programmation & Développement : Alexandra Zaïnal
Sur une idée originale de : Baudouin d'Aumeries
Assistance à la programmation : Marc-Olivier Méhu
Soutien technique & logistique : Manuel Goepfert

Contact : metmap@orbifly.com




SOURCES & CREDITS :

   NOAA